Thursday, September 3, 2015, 11:07 AM EDT
Back to Local

KCXY, Harrisburg Capital City

Location: New Cumberland, PA, United States Lat: 40.217
Local Time: 11:07 AM EDT (15:07 GMT) Lon: -76.85
Time Zone: US/Eastern Elev: 347 ft

Show me the last for .
Show Coded

Time T Td Feel RH Dir Speed Gust Alt SLP Vis Weather Sky Remarks
2015-09-03 09:56 82 67 85 60 310° 7 - 29.94 29.94 9 CLR None
2015-09-03 08:56 76 67 79 73 260° 6 - 29.94 29.94 6 HZ CLR None
2015-09-03 07:56 73 66 77 78 270° 3 - 29.93 29.92 6 HZ CLR 6-hr Min Temp (8am): 70.0°F
6-hr Max Temp (8am): 73.0°F
2015-09-03 06:56 70 65 - 84 290° 5 - 29.92 29.92 4 HZ CLR None
2015-09-03 05:56 71 65 76 81 300° 5 - 29.91 29.91 6 HZ CLR None
2015-09-03 04:56 71 65 76 81 290° 5 - 29.91 29.90 6 HZ CLR None
2015-09-03 03:56 72 65 76 78 320° 5 - 29.91 29.90 7 CLR None
2015-09-03 02:56 72 65 76 78 290° 5 - 29.91 29.90 7 CLR None
2015-09-03 01:56 73 65 77 75 290° 3 - 29.92 29.91 8 CLR 6-hr Min Temp (2am): 73.0°F
6-hr Max Temp (2am): 80.1°F
2015-09-03 00:56 74 65 77 73 310° 3 - 29.94 29.93 8 CLR 24-hr Min Temp (1am): 64.9°F
24-hr Max Temp (1am): 90.0°F
2015-09-02 22:56 77 64 79 64 - Calm - 29.94 29.94 10 CLR None
2015-09-02 21:56 77 65 80 66 260° 5 - 29.94 29.93 10 SCT070 None
2015-09-02 20:56 79 66 82 64 240° 6 - 29.93 29.92 10 CLR None
2015-09-02 19:56 79 68 82 69 - Calm - 29.91 29.91 10 CLR 6-hr Min Temp (8pm): 79.0°F
6-hr Max Temp (8pm): 90.0°F
2015-09-02 16:56 89 63 91 42 350° 7 - 29.93 29.93 10 CLR None
2015-09-02 15:56 90 63 92 40 330° 10 - 29.94 29.94 10 CLR None
2015-09-02 14:56 89 64 92 43 340° 7 - 29.97 29.96 10 CLR None
2015-09-02 13:56 88 63 90 43 350° 8 - 29.99 29.98 10 CLR 6-hr Min Temp (2pm): 69.1°F
6-hr Max Temp (2pm): 88.0°F
2015-09-02 12:56 87 64 89 46 340° 5 - 30.01 30.01 10 CLR None
2015-09-02 11:56 85 63 87 47 320° 10 - 30.04 30.03 10 CLR None

Support USWX by starting your Amazon purchase here.